Time;durP1;ratioP1;P1;durP2;ratioP2;P2;SDS_P1;SDS_P2;PMS_P1;PMS_P2;Temp;Humidity;BMP_temperature;BMP_pressure;BME280_temperature;BME280_humidity;BME280_pressure;Samples;Min_cycle;Max_cycle;Signal;HPM_P1;HPM_P2
2023/04/23 00:01:19;;;;;;;12.77;11.67;;;14.00;53.30;;;;;;6252230;28;20241;-83
2023/04/23 00:04:25;;;;;;;12.83;11.83;;;14.00;53.50;;;;;;6264521;28;20234;-83
2023/04/23 00:07:28;;;;;;;10.83;10.03;;;13.90;53.60;;;;;;6255559;28;20250;-85
2023/04/23 00:10:34;;;;;;;12.40;11.13;;;13.90;53.60;;;;;;6245479;28;20748;-83
2023/04/23 00:13:38;;;;;;;12.97;11.33;;;13.90;53.90;;;;;;6264811;28;20294;-84
2023/04/23 00:16:41;;;;;;;12.77;11.57;;;13.80;54.10;;;;;;6253663;28;20828;-84
2023/04/23 00:19:46;;;;;;;14.47;13.00;;;13.80;54.00;;;;;;6250686;28;20249;-85
2023/04/23 00:22:50;;;;;;;13.80;12.43;;;13.80;54.00;;;;;;6255043;28;20235;-84
2023/04/23 00:25:54;;;;;;;14.37;12.90;;;13.80;54.00;;;;;;6264040;28;20240;-83
2023/04/23 00:28:57;;;;;;;14.13;12.93;;;13.80;54.30;;;;;;6267802;28;20609;-84
2023/04/23 00:32:02;;;;;;;13.17;11.80;;;13.80;54.30;;;;;;6261141;28;20236;-83
2023/04/23 00:35:06;;;;;;;12.93;11.83;;;13.80;54.30;;;;;;6266032;28;20249;-85
2023/04/23 00:38:09;;;;;;;12.63;11.63;;;13.70;54.40;;;;;;6260420;28;20261;-83
2023/04/23 00:41:15;;;;;;;13.67;12.47;;;13.70;54.50;;;;;;6258053;28;20304;-85
2023/04/23 00:44:18;;;;;;;14.13;12.93;;;13.70;54.80;;;;;;6252972;28;20256;-83
2023/04/23 00:47:22;;;;;;;13.60;12.40;;;13.70;54.70;;;;;;6266369;28;20238;-85
2023/04/23 00:50:26;;;;;;;15.47;12.07;;;13.70;54.50;;;;;;6261026;28;20246;-83
2023/04/23 00:53:29;;;;;;;12.27;11.23;;;13.70;54.70;;;;;;6280465;28;20246;-82
2023/04/23 00:56:34;;;;;;;12.70;11.43;;;13.70;54.90;;;;;;6293618;28;20283;-82
2023/04/23 00:59:37;;;;;;;12.30;11.27;;;13.80;55.00;;;;;;6290327;28;20218;-82
2023/04/23 01:02:43;;;;;;;11.40;10.30;;;13.70;54.80;;;;;;6285343;28;20218;-82
2023/04/23 01:05:47;;;;;;;11.97;11.07;;;13.80;54.80;;;;;;6253798;28;20215;-82
2023/04/23 01:08:51;;;;;;;13.63;12.43;;;13.80;55.00;;;;;;6269281;28;20223;-81
2023/04/23 01:11:57;;;;;;;12.93;11.70;;;13.80;55.00;;;;;;6265122;28;20285;-83
2023/04/23 01:15:00;;;;;;;14.00;12.70;;;13.90;54.90;;;;;;6291906;28;20238;-81
2023/04/23 01:18:06;;;;;;;14.27;12.87;;;13.90;55.00;;;;;;6290902;28;20230;-81
2023/04/23 01:21:11;;;;;;;12.30;11.10;;;14.00;54.70;;;;;;6271292;28;20234;-84
2023/04/23 01:24:16;;;;;;;13.10;11.90;;;14.00;54.80;;;;;;6272410;28;20678;-83
2023/04/23 01:27:19;;;;;;;11.40;10.50;;;14.00;54.60;;;;;;6270361;28;20249;-85
2023/04/23 01:30:23;;;;;;;12.70;11.80;;;13.90;54.70;;;;;;6264113;28;20417;-85
2023/04/23 01:33:27;;;;;;;12.97;11.67;;;13.90;55.30;;;;;;6270553;28;20657;-83
2023/04/23 01:36:31;;;;;;;12.50;11.30;;;13.90;55.00;;;;;;6268912;28;20641;-85
2023/04/23 01:39:36;;;;;;;11.87;10.87;;;14.00;55.10;;;;;;6262554;28;20265;-83
2023/04/23 01:42:40;;;;;;;12.40;11.30;;;14.00;54.80;;;;;;6267740;28;20690;-84
2023/04/23 01:45:43;;;;;;;12.57;11.47;;;14.00;55.40;;;;;;6254194;28;20234;-85
2023/04/23 01:48:46;;;;;;;12.30;11.10;;;14.00;55.20;;;;;;6269812;28;20261;-83
2023/04/23 01:51:49;;;;;;;12.60;11.37;;;14.00;55.40;;;;;;6272062;28;20306;-82
2023/04/23 01:54:54;;;;;;;12.67;11.43;;;14.00;55.60;;;;;;6258083;28;20218;-83
2023/04/23 01:57:57;;;;;;;11.90;10.90;;;14.00;55.70;;;;;;6274887;28;20810;-83
2023/04/23 02:01:00;;;;;;;12.53;11.57;;;14.00;55.80;;;;;;6273314;28;20249;-81
2023/04/23 02:04:04;;;;;;;12.87;11.60;;;14.00;56.10;;;;;;6290530;28;20358;-84
2023/04/23 02:07:07;;;;;;;13.80;12.63;;;14.00;56.50;;;;;;6291069;28;20309;-84
2023/04/23 02:10:13;;;;;;;12.63;11.37;;;14.00;56.60;;;;;;6289277;28;20285;-83
2023/04/23 02:13:16;;;;;;;12.83;11.53;;;13.90;57.50;;;;;;6272360;28;20226;-84
2023/04/23 02:16:19;;;;;;;13.10;11.90;;;13.80;58.20;;;;;;6274868;28;20261;-85
2023/04/23 02:19:24;;;;;;;13.27;12.17;;;13.70;58.50;;;;;;6265715;28;20234;-82
2023/04/23 02:22:27;;;;;;;13.67;12.37;;;13.60;60.30;;;;;;6273396;28;20253;-84
2023/04/23 02:25:32;;;;;;;13.20;11.87;;;13.60;61.10;;;;;;6265919;28;20283;-84
2023/04/23 02:28:35;;;;;;;12.80;11.70;;;13.50;62.00;;;;;;6266025;28;20647;-84
2023/04/23 02:31:39;;;;;;;13.63;12.50;;;13.30;62.40;;;;;;6271731;28;20240;-83
2023/04/23 02:34:42;;;;;;;14.43;13.23;;;13.30;63.30;;;;;;6263647;28;20238;-85
2023/04/23 02:37:45;;;;;;;13.73;12.73;;;13.20;64.20;;;;;;6252236;28;20642;-83
2023/04/23 02:40:50;;;;;;;13.87;12.77;;;13.10;65.00;;;;;;6270900;28;20275;-85
2023/04/23 02:43:56;;;;;;;15.17;13.87;;;13.10;65.80;;;;;;6255435;28;20496;-84
2023/04/23 02:47:01;;;;;;;15.00;13.63;;;13.00;66.30;;;;;;6241178;28;20699;-83
2023/04/23 02:50:05;;;;;;;13.53;12.40;;;13.00;66.80;;;;;;6245182;28;20235;-85
2023/04/23 02:53:08;;;;;;;15.57;14.10;;;12.90;67.00;;;;;;6244725;28;20407;-82
2023/04/23 02:56:13;;;;;;;16.23;14.83;;;12.90;67.50;;;;;;6267873;28;20234;-84
2023/04/23 02:59:16;;;;;;;15.93;14.40;;;12.90;68.40;;;;;;6272331;28;20234;-85
2023/04/23 03:02:19;;;;;;;13.90;12.60;;;12.90;68.20;;;;;;6266772;28;20365;-85
2023/04/23 03:05:23;;;;;;;14.30;13.00;;;12.80;68.60;;;;;;6275030;28;20229;-84
2023/04/23 03:08:26;;;;;;;12.57;11.57;;;12.80;68.80;;;;;;6247161;28;20238;-85
2023/04/23 03:11:31;;;;;;;11.97;11.00;;;12.80;68.70;;;;;;6262931;28;20242;-87
2023/04/23 03:14:35;;;;;;;13.20;12.20;;;12.80;68.80;;;;;;6272018;28;20425;-86
2023/04/23 03:17:38;;;;;;;11.87;10.87;;;12.80;68.90;;;;;;6268707;28;20313;-86
2023/04/23 03:20:42;;;;;;;12.83;11.73;;;12.80;69.00;;;;;;6261618;28;20277;-86
2023/04/23 03:23:47;;;;;;;12.13;11.17;;;12.90;69.20;;;;;;6264348;28;20310;-86
2023/04/23 03:26:51;;;;;;;12.07;11.27;;;12.90;69.30;;;;;;6256261;28;20250;-82
2023/04/23 03:29:54;;;;;;;13.33;12.13;;;12.90;69.40;;;;;;6291530;28;20272;-81
2023/04/23 03:32:58;;;;;;;14.13;12.97;;;12.90;69.70;;;;;;6280300;28;20272;-78
2023/04/23 03:36:01;;;;;;;12.40;11.50;;;12.90;70.20;;;;;;6278457;28;20229;-77
2023/04/23 03:39:06;;;;;;;12.73;11.73;;;12.90;70.20;;;;;;6244864;28;20345;-82
2023/04/23 03:42:10;;;;;;;13.87;12.73;;;12.90;70.40;;;;;;6242182;28;20253;-81
2023/04/23 03:45:15;;;;;;;13.00;12.00;;;12.90;70.70;;;;;;6244684;28;20246;-81
2023/04/23 03:48:19;;;;;;;18.00;16.50;;;12.90;70.60;;;;;;6242465;28;20243;-79
2023/04/23 03:51:22;;;;;;;15.67;14.47;;;12.90;71.20;;;;;;6246699;28;20525;-81
2023/04/23 03:54:27;;;;;;;14.40;13.30;;;12.90;71.20;;;;;;6279233;28;20233;-83
2023/04/23 03:57:31;;;;;;;14.03;13.03;;;12.90;71.10;;;;;;6260837;28;20230;-82
2023/04/23 04:00:35;;;;;;;14.10;13.20;;;12.90;71.20;;;;;;6270290;28;20234;-82
2023/04/23 04:03:38;;;;;;;15.63;14.33;;;12.90;71.30;;;;;;6264603;28;20237;-83
2023/04/23 04:06:41;;;;;;;14.57;13.27;;;12.90;71.40;;;;;;6264785;28;20804;-81
2023/04/23 04:09:45;;;;;;;16.60;14.90;;;12.90;71.50;;;;;;6262193;28;20254;-82
2023/04/23 04:12:50;;;;;;;14.93;13.70;;;12.90;71.60;;;;;;6254122;28;21159;-80
2023/04/23 04:15:53;;;;;;;15.87;14.57;;;12.90;71.80;;;;;;6260052;28;20240;-83
2023/04/23 04:18:56;;;;;;;16.07;14.80;;;12.90;71.90;;;;;;6264851;28;20760;-81
2023/04/23 04:22:02;;;;;;;17.20;15.90;;;12.90;72.10;;;;;;6260807;28;20702;-82
2023/04/23 04:25:06;;;;;;;16.20;14.70;;;12.90;72.20;;;;;;6256511;28;20686;-81
2023/04/23 04:28:11;;;;;;;14.17;12.67;;;13.00;72.50;;;;;;6259132;28;20323;-81
2023/04/23 04:31:15;;;;;;;14.10;12.70;;;13.10;72.20;;;;;;6270241;28;20448;-78
2023/04/23 04:34:19;;;;;;;12.27;11.13;;;13.10;72.00;;;;;;6259984;28;20234;-82
2023/04/23 04:37:22;;;;;;;12.40;11.23;;;13.20;71.90;;;;;;6277285;28;20256;-80
2023/04/23 04:40:25;;;;;;;12.37;11.27;;;13.30;71.80;;;;;;6261614;28;20244;-82
2023/04/23 04:43:31;;;;;;;11.37;10.63;;;13.30;71.30;;;;;;6265158;28;20257;-81
2023/04/23 04:46:39;;;;;;;11.73;10.73;;;13.40;71.40;;;;;;6261056;28;20444;-83
2023/04/23 04:49:42;;;;;;;9.50;8.87;;;13.50;71.40;;;;;;6266779;28;20248;-82
2023/04/23 04:52:45;;;;;;;11.93;11.10;;;13.60;71.40;;;;;;6260909;28;20239;-82
2023/04/23 04:55:50;;;;;;;12.00;11.10;;;13.70;71.50;;;;;;6263987;28;20422;-79
2023/04/23 04:58:55;;;;;;;10.57;9.80;;;13.80;71.60;;;;;;6261109;28;20246;-82
2023/04/23 05:01:58;;;;;;;11.37;10.57;;;13.90;71.30;;;;;;6263684;28;20616;-79
2023/04/23 05:05:02;;;;;;;10.87;10.17;;;13.90;71.20;;;;;;6247831;28;20239;-81
2023/04/23 05:08:06;;;;;;;12.67;11.60;;;13.90;71.20;;;;;;6263082;28;20253;-81
2023/04/23 05:11:11;;;;;;;11.50;10.43;;;13.90;71.70;;;;;;6273334;28;20248;-81
2023/04/23 05:14:16;;;;;;;11.27;10.37;;;13.90;71.60;;;;;;6258447;28;20238;-82
2023/04/23 05:17:19;;;;;;;10.97;10.03;;;13.90;71.80;;;;;;6261233;28;20261;-83
2023/04/23 05:20:22;;;;;;;9.97;9.27;;;13.90;71.90;;;;;;6257900;28;20777;-81
2023/04/23 05:23:26;;;;;;;11.47;10.47;;;14.00;71.90;;;;;;6265082;28;20373;-76
2023/04/23 05:26:29;;;;;;;11.00;10.00;;;14.10;71.90;;;;;;6265152;28;20237;-79
2023/04/23 05:29:33;;;;;;;10.80;10.07;;;14.20;71.60;;;;;;6265694;28;20249;-81
2023/04/23 05:32:40;;;;;;;10.30;9.47;;;14.30;71.40;;;;;;6262811;28;20596;-81
2023/04/23 05:35:43;;;;;;;10.37;9.50;;;14.40;71.30;;;;;;6261955;28;20242;-82
2023/04/23 05:38:47;;;;;;;9.20;8.60;;;14.50;70.70;;;;;;6261681;28;20268;-80
2023/04/23 05:41:53;;;;;;;10.97;9.87;;;14.50;70.70;;;;;;6261241;28;20245;-82
2023/04/23 05:44:57;;;;;;;9.87;8.97;;;14.50;70.20;;;;;;6260768;28;20230;-79
2023/04/23 05:48:00;;;;;;;10.40;9.37;;;14.50;70.60;;;;;;6287113;28;20245;-79
2023/04/23 05:51:04;;;;;;;9.77;9.07;;;14.50;70.70;;;;;;6293574;28;20234;-77
2023/04/23 05:54:07;;;;;;;9.63;9.00;;;14.50;70.70;;;;;;6272236;28;20247;-77
2023/04/23 05:57:10;;;;;;;9.67;8.83;;;14.50;70.60;;;;;;6256406;28;20229;-78
2023/04/23 06:00:15;;;;;;;10.50;8.90;;;14.60;70.50;;;;;;6209359;28;20261;-79
2023/04/23 06:03:19;;;;;;;9.80;9.10;;;14.70;70.10;;;;;;6241303;28;20233;-83
2023/04/23 06:06:22;;;;;;;9.07;8.43;;;14.80;70.10;;;;;;6252116;28;20245;-81
2023/04/23 06:09:25;;;;;;;9.80;9.17;;;14.70;70.20;;;;;;6243683;28;20249;-83
2023/04/23 06:12:29;;;;;;;8.90;8.37;;;14.70;70.40;;;;;;6244451;28;20302;-79
2023/04/23 06:15:33;;;;;;;9.10;8.50;;;14.70;70.40;;;;;;6243425;28;20594;-82
2023/04/23 06:18:37;;;;;;;8.47;7.70;;;14.70;70.40;;;;;;6238366;28;20239;-77
2023/04/23 06:21:41;;;;;;;8.80;8.30;;;14.70;70.60;;;;;;6236284;28;20292;-83
2023/04/23 06:24:44;;;;;;;9.70;8.90;;;14.60;71.00;;;;;;6232615;28;20760;-80
2023/04/23 06:27:47;;;;;;;9.30;8.50;;;14.60;70.80;;;;;;6250273;28;20260;-82
2023/04/23 06:30:52;;;;;;;9.57;8.87;;;14.60;71.00;;;;;;6236857;28;20330;-81
2023/04/23 06:33:55;;;;;;;8.77;7.97;;;14.60;71.00;;;;;;6240968;28;20911;-80
2023/04/23 06:36:58;;;;;;;9.10;8.33;;;14.60;71.00;;;;;;6238893;28;20246;-81
2023/04/23 06:40:01;;;;;;;8.23;7.73;;;14.70;70.90;;;;;;6240541;28;20246;-79
2023/04/23 06:43:06;;;;;;;8.77;8.00;;;14.80;70.70;;;;;;6252019;28;20249;-80
2023/04/23 06:46:11;;;;;;;7.80;7.30;;;14.70;70.70;;;;;;6244750;28;20286;-82
2023/04/23 06:49:14;;;;;;;7.77;7.17;;;14.70;71.20;;;;;;6246275;28;20249;-80
2023/04/23 06:52:18;;;;;;;8.20;7.60;;;14.80;71.00;;;;;;6260452;28;20772;-82
2023/04/23 06:55:24;;;;;;;7.60;7.10;;;14.80;70.90;;;;;;6259990;28;20673;-82
2023/04/23 06:58:30;;;;;;;9.33;8.53;;;14.80;70.80;;;;;;6237426;28;20238;-81
2023/04/23 07:01:35;;;;;;;7.57;6.80;;;14.90;70.90;;;;;;6237883;28;20631;-80
2023/04/23 07:04:39;;;;;;;7.63;7.10;;;14.90;70.20;;;;;;6240428;28;20722;-79
2023/04/23 07:07:43;;;;;;;7.37;6.83;;;14.80;70.70;;;;;;6249827;28;20245;-80
2023/04/23 07:10:46;;;;;;;7.17;6.77;;;14.70;70.90;;;;;;6262939;28;20316;-80
2023/04/23 07:13:49;;;;;;;7.37;6.87;;;14.50;71.60;;;;;;6249476;28;20230;-81
2023/04/23 07:16:54;;;;;;;7.67;7.10;;;14.40;72.20;;;;;;6255259;28;20229;-83
2023/04/23 07:19:58;;;;;;;7.90;7.30;;;14.30;72.80;;;;;;6250833;28;20237;-82
2023/04/23 07:23:02;;;;;;;7.20;6.80;;;14.20;73.50;;;;;;6265165;28;20317;-82
2023/04/23 07:26:06;;;;;;;8.67;8.07;;;14.10;73.90;;;;;;6264420;28;20266;-84
2023/04/23 07:29:10;;;;;;;9.27;8.50;;;14.00;74.70;;;;;;6257011;28;20237;-82
2023/04/23 07:32:14;;;;;;;9.27;8.57;;;13.90;75.50;;;;;;6256269;28;20242;-80
2023/04/23 07:35:18;;;;;;;9.70;9.03;;;13.90;75.90;;;;;;6232322;28;20241;-82
2023/04/23 07:38:21;;;;;;;8.50;7.90;;;13.90;76.00;;;;;;6244624;28;20234;-83
2023/04/23 07:41:25;;;;;;;9.83;9.00;;;13.70;76.30;;;;;;6259093;28;20242;-80
2023/04/23 07:44:28;;;;;;;9.00;8.20;;;13.50;77.10;;;;;;6257170;28;20469;-84
2023/04/23 07:47:32;;;;;;;9.87;9.07;;;13.50;77.20;;;;;;6264730;28;20717;-83
2023/04/23 07:50:36;;;;;;;9.67;8.97;;;13.50;77.90;;;;;;6264623;28;20250;-82
2023/04/23 07:53:40;;;;;;;9.80;8.90;;;13.70;77.70;;;;;;6274949;28;20316;-82
2023/04/23 07:56:43;;;;;;;8.93;8.23;;;13.70;77.50;;;;;;6265160;28;20714;-75
2023/04/23 07:59:46;;;;;;;9.57;8.87;;;13.70;77.40;;;;;;6262492;28;20236;-82
2023/04/23 08:02:51;;;;;;;9.60;8.97;;;13.70;77.50;;;;;;6270105;28;20238;-80
2023/04/23 08:05:55;;;;;;;9.17;8.47;;;13.80;77.30;;;;;;6259140;28;20244;-80
2023/04/23 08:08:59;;;;;;;10.50;9.50;;;13.90;77.50;;;;;;6261954;28;20290;-81
2023/04/23 08:12:02;;;;;;;10.03;9.17;;;13.90;77.50;;;;;;6273159;28;20520;-76
2023/04/23 08:15:06;;;;;;;9.93;9.13;;;13.90;77.30;;;;;;6267184;28;20230;-82
2023/04/23 08:18:10;;;;;;;9.93;9.07;;;13.90;77.30;;;;;;6273958;28;20249;-79
2023/04/23 08:21:14;;;;;;;10.50;9.67;;;13.90;77.50;;;;;;6277307;28;20249;-78
2023/04/23 08:24:17;;;;;;;12.03;11.13;;;14.00;77.50;;;;;;6270946;28;20241;-79
2023/04/23 08:27:21;;;;;;;10.20;9.17;;;14.10;77.30;;;;;;6268391;28;20273;-77
2023/04/23 08:30:25;;;;;;;10.50;9.73;;;14.20;77.50;;;;;;6263269;28;20261;-79
2023/04/23 08:33:30;;;;;;;10.53;9.63;;;14.30;77.30;;;;;;6251429;28;20321;-77
2023/04/23 08:36:35;;;;;;;11.03;10.13;;;14.50;77.10;;;;;;6275617;28;20316;-80
2023/04/23 08:39:43;;;;;;;10.63;9.80;;;14.60;76.80;;;;;;6272929;28;20713;-81
2023/04/23 08:42:50;;;;;;;10.47;9.80;;;14.80;76.20;;;;;;6256433;28;20296;-81
2023/04/23 08:45:54;;;;;;;10.60;9.60;;;14.90;75.60;;;;;;6265172;28;20248;-76
2023/04/23 08:49:00;;;;;;;10.17;9.37;;;15.00;74.80;;;;;;6284301;28;20306;-78
2023/04/23 08:52:14;;;;;;;10.60;9.73;;;14.90;75.40;;;;;;6272938;28;20279;-78
2023/04/23 08:55:18;;;;;;;10.97;9.93;;;15.10;75.30;;;;;;6271914;28;20226;-79
2023/04/23 08:58:22;;;;;;;9.90;9.13;;;15.10;75.30;;;;;;6282637;28;20236;-79
2023/04/23 09:01:25;;;;;;;10.17;9.47;;;15.30;74.00;;;;;;6270549;28;20238;-78
2023/04/23 09:04:30;;;;;;;11.03;9.93;;;15.20;73.40;;;;;;6261149;28;20322;-81
2023/04/23 09:07:34;;;;;;;10.73;9.87;;;15.10;73.90;;;;;;6263480;28;20238;-78
2023/04/23 09:10:40;;;;;;;10.77;10.07;;;15.10;74.10;;;;;;6255612;28;20235;-82
2023/04/23 09:13:43;;;;;;;10.90;10.00;;;15.00;74.20;;;;;;6268158;28;20351;-79
2023/04/23 09:16:46;;;;;;;10.77;9.87;;;14.90;74.50;;;;;;6252620;28;20265;-80
2023/04/23 09:19:51;;;;;;;10.30;9.67;;;14.80;75.00;;;;;;6244693;28;20226;-80
2023/04/23 09:22:54;;;;;;;11.63;10.73;;;14.60;75.40;;;;;;6248478;28;20249;-79
2023/04/23 09:25:58;;;;;;;9.63;8.93;;;14.60;75.00;;;;;;6266658;28;20235;-77
2023/04/23 09:29:01;;;;;;;9.57;8.87;;;14.40;75.00;;;;;;6257801;28;20741;-78
2023/04/23 09:32:08;;;;;;;9.23;8.50;;;14.30;75.10;;;;;;6239085;28;20334;-79
2023/04/23 09:35:15;;;;;;;8.47;8.07;;;14.10;75.40;;;;;;6259547;28;20226;-78
2023/04/23 09:38:19;;;;;;;9.37;8.67;;;13.90;75.60;;;;;;6270832;28;20233;-79
2023/04/23 09:41:23;;;;;;;9.13;8.43;;;13.90;76.40;;;;;;6267746;28;20649;-77
2023/04/23 09:44:28;;;;;;;6.90;6.60;;;13.70;76.70;;;;;;6261790;28;20419;-79
2023/04/23 09:47:33;;;;;;;6.73;6.33;;;13.60;75.90;;;;;;6241101;28;20256;-79
2023/04/23 09:50:39;;;;;;;5.50;5.30;;;13.60;75.50;;;;;;6269325;28;20471;-78
2023/04/23 09:53:44;;;;;;;5.37;5.07;;;13.60;75.30;;;;;;6267641;28;20239;-79
2023/04/23 09:56:52;;;;;;;5.23;5.03;;;13.60;74.50;;;;;;6262608;28;20238;-77
2023/04/23 09:59:57;;;;;;;4.57;4.37;;;13.50;74.00;;;;;;6245381;28;20307;-80
2023/04/23 10:03:15;;;;;;;4.63;4.53;;;13.50;74.20;;;;;;6240852;28;20234;-81
2023/04/23 10:06:27;;;;;;;5.07;4.87;;;13.50;74.60;;;;;;6243309;28;20234;-82
2023/04/23 10:09:32;;;;;;;5.20;5.00;;;13.30;75.00;;;;;;6262732;28;20247;-77
2023/04/23 10:12:37;;;;;;;7.07;6.57;;;13.40;75.50;;;;;;6250480;28;20228;-79
2023/04/23 10:15:57;;;;;;;5.97;5.77;;;13.50;74.90;;;;;;6250946;28;20253;-81
2023/04/23 10:19:21;;;;;;;5.27;5.07;;;13.50;74.70;;;;;;6246272;28;20235;-79
2023/04/23 10:22:29;;;;;;;5.50;5.30;;;13.40;74.00;;;;;;6242722;28;20800;-80
2023/04/23 10:25:33;;;;;;;6.27;5.83;;;13.30;74.30;;;;;;6246041;28;20241;-79
2023/04/23 10:28:37;;;;;;;7.20;6.73;;;13.30;74.80;;;;;;6244461;28;20887;-79
2023/04/23 10:31:41;;;;;;;6.93;6.53;;;13.40;75.20;;;;;;6229998;28;20239;-82
2023/04/23 10:34:45;;;;;;;6.27;5.97;;;13.30;75.90;;;;;;6237486;28;20614;-81
2023/04/23 10:37:51;;;;;;;7.70;7.30;;;13.50;76.30;;;;;;6235563;28;20235;-81
2023/04/23 10:40:56;;;;;;;9.00;8.43;;;13.70;74.90;;;;;;6248189;28;20230;-85
2023/04/23 10:43:59;;;;;;;9.93;9.23;;;13.90;74.20;;;;;;6248256;28;20242;-80
2023/04/23 10:47:04;;;;;;;10.37;9.67;;;14.30;73.90;;;;;;6272957;28;20604;-80
2023/04/23 10:50:21;;;;;;;9.33;8.53;;;14.50;71.70;;;;;;6253076;28;20229;-82
2023/04/23 10:53:26;;;;;;;9.80;9.10;;;14.80;70.50;;;;;;6259911;28;20234;-82
2023/04/23 10:56:29;;;;;;;8.40;7.90;;;15.00;68.50;;;;;;6258120;28;20244;-81
2023/04/23 10:59:33;;;;;;;7.17;6.77;;;15.00;69.50;;;;;;6266139;28;20727;-80
2023/04/23 11:02:44;;;;;;;7.23;6.63;;;15.20;69.30;;;;;;6260496;28;20491;-82
2023/04/23 11:05:49;;;;;;;7.40;7.00;;;15.50;67.80;;;;;;6271700;28;20246;-81
2023/04/23 11:08:55;;;;;;;7.50;7.00;;;15.80;67.60;;;;;;6243680;28;20253;-82
2023/04/23 11:12:00;;;;;;;8.87;8.27;;;16.00;66.60;;;;;;6241081;28;20239;-81
2023/04/23 11:15:13;;;;;;;7.83;7.43;;;15.90;66.90;;;;;;6237942;28;20234;-82
2023/04/23 11:18:16;;;;;;;8.53;8.03;;;16.00;66.70;;;;;;6242959;28;20231;-78
2023/04/23 11:21:20;;;;;;;9.03;8.53;;;16.00;65.80;;;;;;6243756;28;20414;-81
2023/04/23 11:24:24;;;;;;;9.63;9.03;;;16.10;66.60;;;;;;6241347;28;20238;-79
2023/04/23 11:27:30;;;;;;;10.33;9.67;;;16.20;65.00;;;;;;6261688;28;20246;-80
2023/04/23 11:30:34;;;;;;;9.57;8.97;;;16.00;64.00;;;;;;6259095;28;20234;-80
2023/04/23 11:33:38;;;;;;;10.00;9.30;;;16.00;64.60;;;;;;6264240;28;20234;-80
2023/04/23 11:36:42;;;;;;;10.07;9.37;;;15.90;64.40;;;;;;6258701;28;20234;-81
2023/04/23 11:39:48;;;;;;;9.40;8.80;;;15.80;64.40;;;;;;6260806;28;20257;-83
2023/04/23 11:42:53;;;;;;;10.50;9.80;;;15.80;64.70;;;;;;6271282;28;20234;-84
2023/04/23 11:46:01;;;;;;;10.57;9.77;;;15.80;64.60;;;;;;6268040;28;20368;-83
2023/04/23 11:49:05;;;;;;;10.57;9.77;;;15.80;65.10;;;;;;6265215;28;20246;-80
2023/04/23 11:52:08;;;;;;;10.10;9.40;;;15.90;65.00;;;;;;6267719;28;20828;-83
2023/04/23 11:55:12;;;;;;;9.30;8.50;;;15.80;65.00;;;;;;6264013;28;20234;-81
2023/04/23 11:58:18;;;;;;;9.83;9.20;;;15.60;65.70;;;;;;6259769;28;20363;-82
2023/04/23 12:01:21;;;;;;;9.73;9.07;;;15.60;66.10;;;;;;6240912;28;20237;-84
2023/04/23 12:04:26;;;;;;;10.40;9.70;;;15.60;65.80;;;;;;6248692;28;20254;-80
2023/04/23 12:07:32;;;;;;;9.80;9.20;;;15.80;65.70;;;;;;6235751;28;20280;-81
2023/04/23 12:10:43;;;;;;;9.13;8.43;;;16.10;65.30;;;;;;6245239;28;20239;-76
2023/04/23 12:13:46;;;;;;;8.90;8.33;;;16.40;64.10;;;;;;6245966;28;20276;-78
2023/04/23 12:16:51;;;;;;;8.43;7.93;;;16.50;63.70;;;;;;6245047;28;20234;-79
2023/04/23 12:19:55;;;;;;;7.53;7.03;;;16.40;63.30;;;;;;6262593;28;20248;-82
2023/04/23 12:23:04;;;;;;;6.67;6.27;;;16.70;62.20;;;;;;6252669;28;20262;-83
2023/04/23 12:26:12;;;;;;;6.67;6.27;;;16.80;61.90;;;;;;6246889;28;20247;-82
2023/04/23 12:29:18;;;;;;;5.37;5.17;;;17.00;60.60;;;;;;6224802;28;20251;-83
2023/04/23 12:32:24;;;;;;;5.03;4.83;;;17.20;60.70;;;;;;6233102;28;20644;-81
2023/04/23 12:35:39;;;;;;;4.37;4.23;;;17.00;59.30;;;;;;6237491;28;20551;-82
2023/04/23 12:38:42;;;;;;;4.50;4.27;;;17.20;59.30;;;;;;6237546;28;20739;-84
2023/04/23 12:41:46;;;;;;;2.90;2.90;;;17.50;59.50;;;;;;6240188;28;20315;-80
2023/04/23 12:44:51;;;;;;;3.80;3.70;;;17.70;57.20;;;;;;6259252;28;20280;-78
2023/04/23 12:47:54;;;;;;;3.27;3.27;;;18.00;57.20;;;;;;6254096;28;20242;-80
2023/04/23 12:50:57;;;;;;;3.87;3.77;;;18.00;56.10;;;;;;6244546;28;20318;-79
2023/04/23 12:54:00;;;;;;;3.00;3.00;;;18.00;56.60;;;;;;6234838;28;20246;-80
2023/04/23 12:57:08;;;;;;;3.20;3.07;;;18.20;56.50;;;;;;6239942;28;20411;-81
2023/04/23 13:00:11;;;;;;;2.80;2.70;;;18.10;56.20;;;;;;6250724;28;20234;-82
2023/04/23 13:03:16;;;;;;;2.70;2.70;;;18.00;55.60;;;;;;6238962;28;20731;-80
2023/04/23 13:06:19;;;;;;;3.30;3.00;;;18.00;55.90;;;;;;6239820;28;20757;-83
2023/04/23 13:09:23;;;;;;;2.80;2.73;;;17.60;55.50;;;;;;6231880;28;20239;-80
2023/04/23 13:12:30;;;;;;;3.20;3.10;;;17.60;56.50;;;;;;6253533;28;20409;-80
2023/04/23 13:15:33;;;;;;;2.83;2.63;;;17.50;56.30;;;;;;6256997;28;20230;-79
2023/04/23 13:18:36;;;;;;;2.70;2.60;;;17.40;55.80;;;;;;6239882;28;20256;-79
2023/04/23 13:21:40;;;;;;;3.17;3.07;;;17.70;56.00;;;;;;6238720;28;20246;-80
2023/04/23 13:24:43;;;;;;;3.37;3.27;;;17.50;55.70;;;;;;6244581;28;20242;-81
2023/04/23 13:27:47;;;;;;;3.10;3.00;;;17.60;55.50;;;;;;6244715;28;20667;-81
2023/04/23 13:30:50;;;;;;;3.10;3.10;;;17.80;54.40;;;;;;6238441;28;20405;-81
2023/04/23 13:33:53;;;;;;;3.40;3.30;;;17.80;52.90;;;;;;6242225;28;20234;-79
2023/04/23 13:36:58;;;;;;;3.57;3.47;;;17.60;53.20;;;;;;6230584;28;20749;-79
2023/04/23 13:40:01;;;;;;;3.60;3.50;;;17.50;53.30;;;;;;6244195;28;20235;-78
2023/04/23 13:43:06;;;;;;;2.90;2.90;;;17.60;53.70;;;;;;6256622;28;20247;-77
2023/04/23 13:46:09;;;;;;;3.37;3.30;;;17.70;53.60;;;;;;6266403;28;20283;-78
2023/04/23 13:49:12;;;;;;;3.70;3.50;;;17.80;53.30;;;;;;6272573;28;20222;-78
2023/04/23 13:52:15;;;;;;;3.50;3.30;;;18.10;53.80;;;;;;6290690;28;20443;-78
2023/04/23 13:55:18;;;;;;;3.60;3.50;;;18.20;54.10;;;;;;6276605;28;20287;-76
2023/04/23 13:58:23;;;;;;;3.30;3.10;;;18.40;53.50;;;;;;6278608;28;20230;-78
2023/04/23 14:01:26;;;;;;;3.70;3.60;;;18.50;53.50;;;;;;6290032;28;20238;-77
2023/04/23 14:04:32;;;;;;;3.30;3.20;;;18.70;52.70;;;;;;6293943;28;20226;-80
2023/04/23 14:07:35;;;;;;;3.53;3.43;;;18.20;52.70;;;;;;6294698;28;20210;-84
2023/04/23 14:10:38;;;;;;;4.17;3.87;;;18.10;52.80;;;;;;6283279;28;20253;-83
2023/04/23 14:13:45;;;;;;;3.80;3.70;;;17.80;52.80;;;;;;6275426;28;20246;-82
2023/04/23 14:16:48;;;;;;;3.90;3.70;;;17.80;53.30;;;;;;6259521;28;20244;-81
2023/04/23 14:19:51;;;;;;;3.40;3.30;;;17.80;53.30;;;;;;6260914;28;20230;-78
2023/04/23 14:23:01;;;;;;;4.07;3.77;;;18.00;52.90;;;;;;6262305;28;20232;-81
2023/04/23 14:26:07;;;;;;;3.47;3.30;;;18.00;52.80;;;;;;6258018;28;20234;-80
2023/04/23 14:29:22;;;;;;;3.97;3.87;;;18.10;53.60;;;;;;6241204;28;20317;-79
2023/04/23 14:32:26;;;;;;;3.73;3.63;;;18.00;53.30;;;;;;6242151;28;20349;-81
2023/04/23 14:35:29;;;;;;;3.60;3.60;;;18.30;52.80;;;;;;6264665;28;20364;-82
2023/04/23 14:38:45;;;;;;;3.57;3.47;;;18.40;52.90;;;;;;6260726;28;20226;-81
2023/04/23 14:41:48;;;;;;;3.07;3.07;;;18.40;51.40;;;;;;6265881;28;20249;-80
2023/04/23 14:44:55;;;;;;;3.20;3.17;;;18.10;51.60;;;;;;6233298;28;20332;-78
2023/04/23 14:47:59;;;;;;;2.80;2.80;;;18.00;52.30;;;;;;6241578;28;20270;-78
2023/04/23 14:51:02;;;;;;;3.10;3.00;;;18.00;51.70;;;;;;6248533;28;20625;-79
2023/04/23 14:54:06;;;;;;;3.30;3.20;;;18.00;52.10;;;;;;6265962;28;20242;-76
2023/04/23 14:57:09;;;;;;;3.33;3.23;;;18.10;51.70;;;;;;6273530;28;20237;-74
2023/04/23 15:00:14;;;;;;;3.23;3.10;;;18.20;51.70;;;;;;6272446;28;20248;-77
2023/04/23 15:03:17;;;;;;;3.07;3.00;;;18.30;52.50;;;;;;6300904;28;20315;-77
2023/04/23 15:06:20;;;;;;;3.30;3.20;;;18.50;51.70;;;;;;6295159;28;20226;-75
2023/04/23 15:09:23;;;;;;;3.10;2.70;;;18.50;51.70;;;;;;6297104;28;20242;-77
2023/04/23 15:12:49;;;;;;;2.73;2.63;;;18.60;52.10;;;;;;6265168;28;20302;-76
2023/04/23 15:15:58;;;;;;;2.60;2.60;;;18.60;50.40;;;;;;6277260;28;20235;-80
2023/04/23 15:19:05;;;;;;;2.73;2.70;;;18.70;51.00;;;;;;6245009;28;20262;-78
2023/04/23 15:22:08;;;;;;;2.77;2.67;;;18.80;50.80;;;;;;6242125;28;20655;-77
2023/04/23 15:25:11;;;;;;;2.87;2.77;;;18.70;50.50;;;;;;6240044;28;20239;-77
2023/04/23 15:28:14;;;;;;;2.43;2.43;;;18.70;50.90;;;;;;6245755;28;20244;-77
2023/04/23 15:31:18;;;;;;;2.80;2.70;;;18.70;50.40;;;;;;6240383;28;20234;-77
2023/04/23 15:34:22;;;;;;;2.30;2.30;;;18.60;50.40;;;;;;6235546;28;20258;-78
2023/04/23 15:37:26;;;;;;;2.53;2.53;;;18.80;50.20;;;;;;6251228;28;20248;-80
2023/04/23 15:40:29;;;;;;;2.57;2.57;;;18.90;49.50;;;;;;6267127;28;20231;-79
2023/04/23 15:43:33;;;;;;;2.40;2.30;;;18.80;49.30;;;;;;6262580;28;20227;-79
2023/04/23 15:46:39;;;;;;;1.87;1.87;;;18.70;49.50;;;;;;6263690;28;20247;-78
2023/04/23 15:49:42;;;;;;;2.03;2.03;;;18.70;49.50;;;;;;6253702;28;20618;-79